createdAt,value
2019-05-07T00:01:34.144Z,7.70
2019-05-07T00:03:08.350Z,8.00
2019-05-07T00:04:43.027Z,7.70
2019-05-07T00:06:17.726Z,8.03
2019-05-07T00:07:52.458Z,7.67
2019-05-07T00:09:27.161Z,8.70
2019-05-07T00:11:02.447Z,8.33
2019-05-07T00:12:37.223Z,7.47
2019-05-07T00:14:12.569Z,8.13
2019-05-07T00:15:47.356Z,7.20
2019-05-07T00:17:22.881Z,9.93
2019-05-07T00:18:57.629Z,7.40
2019-05-07T00:20:32.842Z,8.07
2019-05-07T00:22:07.672Z,7.90
2019-05-07T00:23:43.252Z,7.67
2019-05-07T00:25:18.305Z,8.17
2019-05-07T00:26:53.363Z,8.70
2019-05-07T00:28:28.264Z,8.47
2019-05-07T00:30:03.187Z,8.07
2019-05-07T00:31:41.995Z,7.80
2019-05-07T00:33:16.472Z,6.33
2019-05-07T00:34:55.564Z,8.07
2019-05-07T00:36:38.572Z,7.67
2019-05-07T00:38:14.429Z,7.57
2019-05-07T00:39:56.280Z,6.83
2019-05-07T00:41:36.913Z,6.40
2019-05-07T00:43:23.242Z,8.37
2019-05-07T00:45:20.660Z,6.57
2019-05-07T00:46:53.407Z,5.20
2019-05-07T00:48:28.047Z,4.83
2019-05-07T00:50:07.354Z,5.23
2019-05-07T00:51:42.498Z,4.47
2019-05-07T00:53:17.326Z,5.43
2019-05-07T00:54:53.104Z,4.43
2019-05-07T00:56:27.872Z,5.60
2019-05-07T00:58:02.549Z,4.10
2019-05-07T00:59:37.186Z,4.43
2019-05-07T01:01:13.065Z,4.93
2019-05-07T01:02:47.790Z,4.77
2019-05-07T01:04:23.036Z,4.97
2019-05-07T01:05:57.866Z,6.20
2019-05-07T01:07:32.639Z,5.70
2019-05-07T01:09:07.543Z,4.50
2019-05-07T01:10:42.215Z,4.13
2019-05-07T01:12:16.847Z,5.67
2019-05-07T01:13:52.160Z,4.50
2019-05-07T01:15:30.695Z,4.67
2019-05-07T01:17:03.241Z,5.57
2019-05-07T01:18:37.866Z,5.27
2019-05-07T01:20:12.704Z,6.43
2019-05-07T01:21:47.425Z,5.67
2019-05-07T01:23:22.974Z,5.10
2019-05-07T01:24:57.699Z,5.33
2019-05-07T01:26:33.032Z,6.67
2019-05-07T01:28:07.756Z,7.00
2019-05-07T01:29:43.045Z,6.97
2019-05-07T01:31:17.832Z,6.00
2019-05-07T01:33:00.117Z,7.37
2019-05-07T01:34:40.441Z,6.93
2019-05-07T01:36:18.142Z,7.73
2019-05-07T01:37:53.857Z,6.83
2019-05-07T01:39:28.492Z,8.00
2019-05-07T01:41:03.210Z,7.87
2019-05-07T01:42:37.869Z,7.37
2019-05-07T01:44:12.884Z,7.53
2019-05-07T01:45:49.707Z,6.73
2019-05-07T01:47:23.997Z,7.20
2019-05-07T01:48:58.630Z,8.43
2019-05-07T01:50:33.265Z,8.17
2019-05-07T01:52:07.968Z,7.40
2019-05-07T01:53:43.119Z,9.67
2019-05-07T01:55:17.844Z,11.80
2019-05-07T01:56:52.497Z,8.67
2019-05-07T01:58:27.171Z,11.63
2019-05-07T02:00:02.534Z,9.90
2019-05-07T02:01:38.997Z,8.00
2019-05-07T02:03:23.046Z,9.23
2019-05-07T02:05:18.682Z,10.83
2019-05-07T02:07:11.964Z,9.73
2019-05-07T02:09:14.869Z,9.10
2019-05-07T02:11:02.107Z,10.00
2019-05-07T02:12:37.753Z,10.23
2019-05-07T02:14:13.649Z,9.80
2019-05-07T02:16:00.289Z,10.20
2019-05-07T02:17:24.811Z,11.03
2019-05-07T02:19:02.118Z,9.43
2019-05-07T02:20:37.537Z,10.63
2019-05-07T02:22:13.438Z,11.33
2019-05-07T02:23:48.209Z,11.30
2019-05-07T02:25:22.928Z,11.37
2019-05-07T02:26:57.781Z,11.27
2019-05-07T02:28:33.081Z,11.27
2019-05-07T02:30:08.175Z,12.37
2019-05-07T02:31:44.257Z,12.53
2019-05-07T02:33:19.365Z,12.30
2019-05-07T02:34:58.115Z,10.40
2019-05-07T02:36:34.464Z,13.03
2019-05-07T02:38:28.274Z,10.57
2019-05-07T02:40:23.956Z,10.47
2019-05-07T02:41:58.598Z,12.57
2019-05-07T02:43:33.964Z,10.37
2019-05-07T02:45:33.192Z,13.47
2019-05-07T02:47:16.017Z,10.80
2019-05-07T02:48:56.695Z,12.50
2019-05-07T02:50:37.629Z,12.90
2019-05-07T02:52:33.911Z,11.50
2019-05-07T02:54:24.461Z,11.17
2019-05-07T02:56:03.374Z,11.23
2019-05-07T02:57:36.658Z,11.70
2019-05-07T02:59:13.683Z,11.90
2019-05-07T03:00:47.673Z,11.63
2019-05-07T03:02:24.086Z,11.30
2019-05-07T03:03:59.069Z,12.97
2019-05-07T03:05:34.902Z,11.47
2019-05-07T03:07:12.942Z,13.23
2019-05-07T03:08:46.566Z,12.87
2019-05-07T03:10:23.841Z,10.93
2019-05-07T03:11:57.527Z,11.93
2019-05-07T03:13:33.650Z,11.60
2019-05-07T03:15:08.670Z,14.67
2019-05-07T03:16:47.878Z,14.27
2019-05-07T03:18:20.601Z,12.23
2019-05-07T03:19:56.821Z,12.17
2019-05-07T03:21:53.466Z,13.30
2019-05-07T03:23:33.987Z,12.67
2019-05-07T03:25:15.032Z,12.07
2019-05-07T03:26:53.404Z,12.67
2019-05-07T03:28:27.070Z,12.27
2019-05-07T03:30:16.186Z,14.53
2019-05-07T03:31:56.341Z,12.50
2019-05-07T03:33:37.200Z,13.17
2019-05-07T03:35:36.768Z,11.90
2019-05-07T03:37:09.508Z,12.27
2019-05-07T03:38:44.367Z,14.20
2019-05-07T03:40:19.029Z,13.07
2019-05-07T03:41:53.664Z,13.23
2019-05-07T03:43:28.298Z,14.73
2019-05-07T03:45:09.320Z,13.80
2019-05-07T03:46:56.843Z,15.53
2019-05-07T03:48:23.738Z,13.63
2019-05-07T03:49:58.419Z,12.53
2019-05-07T03:51:35.658Z,12.57
2019-05-07T03:53:13.894Z,11.47
2019-05-07T03:54:46.685Z,12.80
2019-05-07T03:56:23.662Z,13.90
2019-05-07T03:57:57.676Z,11.53
2019-05-07T03:59:34.165Z,12.50
2019-05-07T04:01:08.654Z,11.37
2019-05-07T04:02:44.001Z,13.97
2019-05-07T04:04:18.883Z,13.23
2019-05-07T04:05:53.601Z,13.17
2019-05-07T04:07:29.243Z,12.47
2019-05-07T04:09:04.508Z,12.27
2019-05-07T04:10:39.229Z,13.67
2019-05-07T04:12:14.850Z,12.93
2019-05-07T04:13:49.507Z,14.20
2019-05-07T04:15:24.189Z,13.23
2019-05-07T04:17:13.114Z,11.47
2019-05-07T04:18:35.245Z,14.73
2019-05-07T04:20:13.272Z,14.87
2019-05-07T04:21:46.253Z,12.33
2019-05-07T04:23:23.254Z,13.53
2019-05-07T04:25:04.881Z,14.43
2019-05-07T04:26:43.069Z,14.10
2019-05-07T04:28:25.274Z,12.33
2019-05-07T04:30:03.422Z,12.70
2019-05-07T04:31:43.565Z,12.70
2019-05-07T04:33:19.440Z,14.00
2019-05-07T04:35:04.058Z,10.93
2019-05-07T04:36:45.253Z,15.73
2019-05-07T04:38:19.898Z,12.10
2019-05-07T04:39:54.547Z,9.47
2019-05-07T04:41:29.206Z,10.90
2019-05-07T04:43:03.943Z,11.70
2019-05-07T04:44:38.575Z,11.97
2019-05-07T04:46:14.440Z,11.87
2019-05-07T04:47:49.517Z,10.50
2019-05-07T04:49:24.267Z,11.77
2019-05-07T04:51:03.587Z,9.50
2019-05-07T04:52:37.903Z,8.87
2019-05-07T04:54:13.290Z,9.13
2019-05-07T04:55:48.107Z,10.33
2019-05-07T04:57:25.912Z,9.47
2019-05-07T04:59:03.377Z,8.23
2019-05-07T05:00:36.908Z,8.00
2019-05-07T05:02:16.901Z,8.57
2019-05-07T05:03:54.045Z,7.00
2019-05-07T05:05:27.937Z,10.00
2019-05-07T05:07:02.829Z,7.70
2019-05-07T05:08:37.546Z,9.93
2019-05-07T05:10:13.382Z,8.43
2019-05-07T05:11:48.300Z,7.50
2019-05-07T05:13:23.827Z,8.30
2019-05-07T05:14:58.627Z,7.80
2019-05-07T05:16:33.291Z,8.90
2019-05-07T05:18:08.003Z,9.00
2019-05-07T05:19:43.882Z,8.90
2019-05-07T05:21:56.005Z,10.00
2019-05-07T05:23:45.193Z,7.70
2019-05-07T05:25:27.094Z,10.70
2019-05-07T05:27:02.630Z,10.40
2019-05-07T05:28:37.411Z,10.80
2019-05-07T05:30:14.868Z,10.87
2019-05-07T05:31:49.537Z,9.47
2019-05-07T05:33:24.191Z,9.17
2019-05-07T05:35:00.507Z,9.87
2019-05-07T05:36:35.146Z,8.13
2019-05-07T05:38:12.437Z,11.37
2019-05-07T05:40:04.813Z,8.40
2019-05-07T05:41:27.433Z,6.93
2019-05-07T05:43:33.394Z,8.30
2019-05-07T05:45:27.675Z,6.37
2019-05-07T05:47:02.724Z,8.50
2019-05-07T05:48:37.395Z,7.13
2019-05-07T05:50:13.586Z,7.27
2019-05-07T05:51:58.027Z,9.30
2019-05-07T05:53:38.613Z,6.47
2019-05-07T05:55:18.395Z,5.23
2019-05-07T05:56:57.468Z,6.83
2019-05-07T05:58:52.714Z,6.60
2019-05-07T06:00:42.621Z,7.77
2019-05-07T06:02:35.239Z,7.13
2019-05-07T06:04:22.155Z,6.90
2019-05-07T06:06:02.884Z,5.43
2019-05-07T06:07:46.105Z,7.13
2019-05-07T06:09:38.262Z,7.27
2019-05-07T06:11:19.264Z,7.77
2019-05-07T06:13:01.757Z,7.83
2019-05-07T06:14:46.049Z,5.63
2019-05-07T06:16:24.042Z,7.00
2019-05-07T06:18:17.933Z,7.13
2019-05-07T06:19:46.265Z,5.40
2019-05-07T06:21:48.728Z,7.47
2019-05-07T06:23:33.065Z,6.67
2019-05-07T06:25:17.420Z,5.90
2019-05-07T06:26:52.265Z,6.87
2019-05-07T06:28:27.006Z,7.73
2019-05-07T06:30:04.765Z,6.20
2019-05-07T06:31:38.034Z,6.43
2019-05-07T06:33:12.708Z,8.23
2019-05-07T06:34:47.349Z,5.07
2019-05-07T06:36:22.162Z,7.53
2019-05-07T06:37:56.862Z,5.57
2019-05-07T06:39:38.244Z,5.50
2019-05-07T06:41:41.850Z,4.93
2019-05-07T06:43:27.823Z,5.47
2019-05-07T06:45:13.986Z,6.80
2019-05-07T06:46:48.625Z,8.07
2019-05-07T06:48:37.846Z,7.93
2019-05-07T06:49:59.704Z,5.60
2019-05-07T06:51:34.370Z,7.07
2019-05-07T06:53:08.998Z,5.20
2019-05-07T06:54:43.646Z,4.23
2019-05-07T06:56:18.289Z,6.17
2019-05-07T06:57:53.187Z,4.63
2019-05-07T06:59:42.469Z,3.80
2019-05-07T07:01:48.242Z,5.90
2019-05-07T07:03:36.078Z,6.30
2019-05-07T07:05:30.034Z,7.43
2019-05-07T07:07:27.462Z,3.90
2019-05-07T07:09:14.104Z,5.00
2019-05-07T07:11:10.416Z,5.07
2019-05-07T07:12:45.426Z,4.03
2019-05-07T07:14:20.136Z,5.47
2019-05-07T07:15:54.873Z,6.23
2019-05-07T07:17:29.524Z,5.90
2019-05-07T07:19:04.239Z,4.50
2019-05-07T07:20:38.915Z,4.03
2019-05-07T07:22:13.560Z,5.00
2019-05-07T07:23:48.208Z,5.33
2019-05-07T07:25:23.066Z,4.13
2019-05-07T07:26:58.856Z,4.97
2019-05-07T07:28:33.576Z,4.70
2019-05-07T07:30:26.612Z,4.47
2019-05-07T07:32:03.550Z,3.77
2019-05-07T07:33:40.923Z,7.63
2019-05-07T07:35:16.459Z,4.03
2019-05-07T07:37:07.892Z,6.43
2019-05-07T07:38:34.937Z,5.97
2019-05-07T07:40:32.927Z,2.47
2019-05-07T07:42:08.034Z,4.70
2019-05-07T07:43:42.748Z,4.07
2019-05-07T07:45:18.177Z,2.83
2019-05-07T07:46:53.223Z,4.47
2019-05-07T07:48:28.406Z,3.67
2019-05-07T07:50:03.301Z,3.13
2019-05-07T07:51:42.207Z,4.73
2019-05-07T07:53:14.704Z,4.10
2019-05-07T07:54:49.354Z,2.17
2019-05-07T07:56:53.183Z,4.07
2019-05-07T07:58:34.253Z,5.37
2019-05-07T08:00:23.400Z,6.00
2019-05-07T08:02:09.483Z,4.07
2019-05-07T08:03:44.161Z,2.93
2019-05-07T08:05:18.880Z,3.60
2019-05-07T08:07:03.062Z,2.43
2019-05-07T08:08:37.906Z,3.23
2019-05-07T08:10:12.986Z,5.53
2019-05-07T08:11:47.646Z,2.40
2019-05-07T08:13:22.886Z,4.63
2019-05-07T08:15:13.319Z,3.50
2019-05-07T08:16:34.235Z,5.20
2019-05-07T08:18:08.940Z,4.70
2019-05-07T08:19:43.810Z,2.87
2019-05-07T08:21:19.491Z,4.27
2019-05-07T08:22:54.216Z,3.13
2019-05-07T08:24:28.965Z,1.97
2019-05-07T08:26:03.701Z,4.10
2019-05-07T08:27:38.479Z,3.87
2019-05-07T08:29:13.133Z,4.17
2019-05-07T08:31:02.923Z,1.80
2019-05-07T08:33:02.030Z,3.00
2019-05-07T08:34:43.363Z,2.53
2019-05-07T08:36:18.442Z,2.83
2019-05-07T08:37:53.082Z,3.33
2019-05-07T08:39:27.833Z,3.53
2019-05-07T08:41:02.832Z,3.37
2019-05-07T08:42:37.792Z,4.00
2019-05-07T08:44:16.381Z,2.90
2019-05-07T08:46:08.981Z,3.30
2019-05-07T08:47:47.966Z,2.63
2019-05-07T08:49:35.948Z,2.63
2019-05-07T08:50:59.441Z,2.80
2019-05-07T08:52:34.092Z,1.87
2019-05-07T08:54:08.800Z,3.17
2019-05-07T08:55:43.499Z,2.63
2019-05-07T08:57:18.242Z,2.37
2019-05-07T08:58:52.948Z,3.83
2019-05-07T09:00:27.614Z,3.00
2019-05-07T09:02:03.161Z,2.43
2019-05-07T09:03:43.951Z,3.30
2019-05-07T09:05:18.782Z,3.23
2019-05-07T09:06:53.765Z,2.63
2019-05-07T09:08:28.444Z,4.60
2019-05-07T09:10:03.521Z,3.10
2019-05-07T09:11:38.584Z,3.57
2019-05-07T09:13:13.259Z,3.87
2019-05-07T09:14:47.910Z,2.93
2019-05-07T09:16:23.282Z,3.57
2019-05-07T09:17:58.093Z,2.47
2019-05-07T09:19:46.878Z,1.63
2019-05-07T09:21:09.762Z,3.20
2019-05-07T09:22:44.423Z,3.77
2019-05-07T09:24:19.072Z,3.30
2019-05-07T09:25:53.805Z,3.53
2019-05-07T09:27:34.110Z,4.07
2019-05-07T09:29:26.780Z,3.50
2019-05-07T09:31:09.554Z,3.27
2019-05-07T09:32:54.285Z,3.23
2019-05-07T09:34:32.692Z,2.73
2019-05-07T09:36:12.163Z,2.47
2019-05-07T09:37:46.787Z,3.80
2019-05-07T09:39:22.137Z,2.00
2019-05-07T09:40:57.207Z,2.90
2019-05-07T09:42:33.266Z,3.33
2019-05-07T09:44:08.353Z,3.43
2019-05-07T09:45:43.144Z,2.30
2019-05-07T09:47:17.788Z,3.73
2019-05-07T09:48:53.580Z,5.07
2019-05-07T09:50:28.246Z,3.83
2019-05-07T09:52:05.909Z,2.43
2019-05-07T09:53:39.342Z,2.23
2019-05-07T09:55:17.459Z,2.40
2019-05-07T09:56:52.583Z,2.70
2019-05-07T09:58:36.666Z,2.17
2019-05-07T10:00:04.353Z,2.03
2019-05-07T10:01:41.295Z,2.33
2019-05-07T10:03:16.017Z,2.27
2019-05-07T10:04:52.605Z,3.17
2019-05-07T10:06:27.239Z,2.47
2019-05-07T10:08:02.042Z,1.33
2019-05-07T10:09:37.830Z,1.90
2019-05-07T10:11:19.155Z,1.33
2019-05-07T10:13:01.707Z,2.90
2019-05-07T10:14:35.987Z,2.70
2019-05-07T10:16:12.663Z,4.73
2019-05-07T10:18:04.804Z,2.17
2019-05-07T10:19:41.622Z,3.17
2019-05-07T10:21:16.283Z,2.30
2019-05-07T10:22:51.981Z,1.90
2019-05-07T10:24:26.963Z,2.27
2019-05-07T10:26:02.115Z,2.47
2019-05-07T10:27:38.568Z,3.07
2019-05-07T10:29:13.292Z,3.10
2019-05-07T10:30:47.997Z,2.40
2019-05-07T10:32:22.636Z,2.40
2019-05-07T10:33:57.404Z,1.23
2019-05-07T10:35:33.754Z,7.03
2019-05-07T10:37:08.469Z,4.83
2019-05-07T10:38:43.165Z,3.43
2019-05-07T10:40:19.307Z,3.53
2019-05-07T10:41:53.982Z,4.13
2019-05-07T10:43:28.620Z,4.03
2019-05-07T10:45:17.963Z,2.90
2019-05-07T10:47:12.094Z,2.37
2019-05-07T10:49:01.976Z,2.47
2019-05-07T10:50:39.377Z,3.70
2019-05-07T10:52:14.247Z,2.70
2019-05-07T10:53:49.115Z,2.33
2019-05-07T10:55:23.740Z,2.10
2019-05-07T10:56:58.459Z,3.33
2019-05-07T10:58:33.097Z,2.03
2019-05-07T11:00:12.385Z,5.00
2019-05-07T11:01:53.984Z,2.23
2019-05-07T11:03:28.737Z,2.13
2019-05-07T11:05:03.406Z,1.83
2019-05-07T11:06:38.061Z,5.10
2019-05-07T11:08:12.772Z,2.67
2019-05-07T11:09:47.517Z,1.93
2019-05-07T11:11:22.144Z,4.00
2019-05-07T11:12:56.868Z,2.60
2019-05-07T11:14:32.167Z,2.73
2019-05-07T11:16:11.802Z,1.40
2019-05-07T11:17:52.091Z,3.20
2019-05-07T11:19:27.096Z,2.50
2019-05-07T11:21:03.017Z,2.73
2019-05-07T11:22:37.900Z,2.17
2019-05-07T11:24:12.579Z,2.20
2019-05-07T11:25:48.864Z,2.60
2019-05-07T11:27:23.767Z,2.53
2019-05-07T11:28:58.409Z,3.63
2019-05-07T11:30:33.136Z,3.93
2019-05-07T11:32:08.011Z,2.97
2019-05-07T11:33:42.662Z,2.03
2019-05-07T11:35:17.473Z,2.63
2019-05-07T11:36:52.419Z,2.50
2019-05-07T11:38:27.192Z,2.30
2019-05-07T11:40:03.176Z,2.33
2019-05-07T11:41:51.369Z,2.17
2019-05-07T11:43:32.735Z,2.20
2019-05-07T11:45:08.218Z,4.57
2019-05-07T11:47:03.122Z,2.27
2019-05-07T11:48:42.595Z,2.23
2019-05-07T11:50:42.602Z,3.63
2019-05-07T11:52:22.841Z,2.50
2019-05-07T11:54:12.719Z,3.57
2019-05-07T11:55:47.021Z,1.70
2019-05-07T11:57:22.167Z,1.93
2019-05-07T11:58:56.870Z,2.00
2019-05-07T12:00:37.355Z,1.87
2019-05-07T12:02:12.354Z,1.37
2019-05-07T12:03:47.016Z,1.60
2019-05-07T12:05:22.668Z,3.93
2019-05-07T12:06:57.493Z,1.73
2019-05-07T12:08:42.784Z,2.67
2019-05-07T12:10:08.514Z,4.70
2019-05-07T12:11:43.165Z,3.43
2019-05-07T12:13:17.796Z,2.53
2019-05-07T12:14:52.474Z,5.63
2019-05-07T12:16:27.114Z,1.47
2019-05-07T12:18:03.004Z,2.57
2019-05-07T12:19:37.971Z,2.70
2019-05-07T12:21:20.178Z,2.50
2019-05-07T12:22:48.999Z,2.80
2019-05-07T12:24:23.660Z,1.93
2019-05-07T12:25:58.358Z,3.83
2019-05-07T12:27:33.014Z,1.60
2019-05-07T12:29:07.757Z,2.47
2019-05-07T12:31:07.819Z,2.53
2019-05-07T12:33:02.353Z,2.90
2019-05-07T12:34:42.348Z,1.80
2019-05-07T12:36:17.202Z,2.03
2019-05-07T12:37:51.887Z,2.37
2019-05-07T12:39:26.641Z,2.80
2019-05-07T12:41:02.916Z,2.03
2019-05-07T12:42:37.759Z,1.63
2019-05-07T12:44:13.100Z,2.97
2019-05-07T12:45:47.801Z,3.43
2019-05-07T12:47:22.621Z,1.43
2019-05-07T12:48:57.341Z,4.23
2019-05-07T12:50:32.351Z,3.37
2019-05-07T12:52:18.802Z,2.63
2019-05-07T12:54:11.966Z,3.27
2019-05-07T12:55:53.647Z,3.43
2019-05-07T12:57:28.297Z,1.77
2019-05-07T12:59:03.163Z,3.63
2019-05-07T13:00:55.704Z,3.07
2019-05-07T13:02:43.458Z,2.67
2019-05-07T13:04:18.180Z,3.73
2019-05-07T13:05:54.080Z,5.03
2019-05-07T13:07:46.753Z,2.50
2019-05-07T13:09:22.022Z,3.77
2019-05-07T13:10:56.694Z,2.43
2019-05-07T13:12:32.208Z,2.50
2019-05-07T13:14:07.011Z,3.83
2019-05-07T13:15:43.329Z,3.17
2019-05-07T13:17:18.088Z,2.10
2019-05-07T13:18:52.718Z,3.30
2019-05-07T13:20:27.541Z,2.87
2019-05-07T13:22:02.463Z,5.83
2019-05-07T13:23:38.284Z,3.00
2019-05-07T13:25:13.170Z,3.43
2019-05-07T13:26:47.879Z,3.67
2019-05-07T13:28:22.581Z,4.43
2019-05-07T13:29:58.527Z,2.90
2019-05-07T13:31:33.850Z,2.73
2019-05-07T13:33:08.519Z,2.43
2019-05-07T13:34:43.439Z,3.47
2019-05-07T13:36:18.162Z,3.00
2019-05-07T13:38:11.794Z,4.80
2019-05-07T13:39:53.012Z,1.77
2019-05-07T13:41:58.747Z,2.90
2019-05-07T13:43:38.470Z,4.07
2019-05-07T13:45:24.786Z,2.67
2019-05-07T13:47:17.500Z,3.10
2019-05-07T13:48:52.431Z,4.83
2019-05-07T13:50:27.076Z,2.87
2019-05-07T13:52:03.820Z,4.47
2019-05-07T13:53:38.585Z,3.10
2019-05-07T13:55:13.583Z,3.10
2019-05-07T13:56:48.702Z,3.20
2019-05-07T13:58:23.397Z,3.87
2019-05-07T13:59:58.127Z,4.20
2019-05-07T14:01:48.197Z,2.93
2019-05-07T14:03:22.899Z,5.13
2019-05-07T14:04:58.041Z,3.93
2019-05-07T14:06:38.871Z,4.10
2019-05-07T14:08:14.219Z,5.43
2019-05-07T14:09:49.097Z,3.60
2019-05-07T14:11:23.832Z,6.43
2019-05-07T14:13:08.506Z,2.73
2019-05-07T14:14:35.093Z,2.20
2019-05-07T14:16:11.863Z,2.20
2019-05-07T14:17:46.349Z,2.73
2019-05-07T14:19:22.405Z,3.10
2019-05-07T14:20:57.308Z,2.37
2019-05-07T14:22:32.056Z,3.50
2019-05-07T14:24:06.707Z,2.97
2019-05-07T14:25:41.958Z,3.87
2019-05-07T14:27:16.692Z,4.03
2019-05-07T14:28:52.565Z,2.60
2019-05-07T14:30:27.411Z,3.27
2019-05-07T14:32:19.990Z,3.40
2019-05-07T14:34:00.187Z,3.93
2019-05-07T14:35:45.099Z,4.30
2019-05-07T14:37:26.963Z,2.57
2019-05-07T14:39:02.478Z,2.73
2019-05-07T14:40:38.789Z,2.70
2019-05-07T14:42:17.698Z,2.90
2019-05-07T14:44:12.118Z,2.60
2019-05-07T14:45:46.939Z,2.20
2019-05-07T14:47:22.423Z,3.43
2019-05-07T14:48:57.298Z,2.97
2019-05-07T14:50:32.970Z,2.53
2019-05-07T14:52:08.014Z,4.13
2019-05-07T14:53:42.929Z,3.30
2019-05-07T14:55:17.657Z,3.40
2019-05-07T14:56:52.422Z,3.17
2019-05-07T14:58:27.205Z,4.23
2019-05-07T15:00:03.280Z,4.00
2019-05-07T15:01:38.569Z,2.93
2019-05-07T15:03:13.340Z,2.57
2019-05-07T15:04:48.181Z,2.53
2019-05-07T15:06:22.969Z,3.20
2019-05-07T15:08:08.226Z,3.87
2019-05-07T15:09:34.048Z,3.47
2019-05-07T15:11:08.771Z,5.20
2019-05-07T15:12:44.484Z,2.93
2019-05-07T15:14:19.128Z,3.00
2019-05-07T15:15:53.863Z,2.80
2019-05-07T15:17:46.758Z,2.60
2019-05-07T15:19:21.719Z,3.63
2019-05-07T15:20:56.486Z,2.70
2019-05-07T15:22:49.185Z,4.00
2019-05-07T15:24:16.232Z,3.43
2019-05-07T15:25:51.728Z,3.10
2019-05-07T15:27:26.671Z,3.63
2019-05-07T15:29:06.218Z,3.23
2019-05-07T15:31:06.205Z,1.93
2019-05-07T15:32:42.776Z,3.80
2019-05-07T15:34:17.347Z,2.20
2019-05-07T15:35:52.242Z,4.93
2019-05-07T15:37:26.965Z,2.30
2019-05-07T15:39:02.917Z,3.40
2019-05-07T15:40:39.495Z,2.70
2019-05-07T15:42:14.139Z,2.43
2019-05-07T15:43:48.897Z,2.10
2019-05-07T15:45:23.587Z,3.13
2019-05-07T15:46:59.885Z,3.80
2019-05-07T15:48:34.605Z,4.73
2019-05-07T15:50:12.293Z,2.40
2019-05-07T15:51:46.280Z,2.60
2019-05-07T15:53:34.093Z,4.57
2019-05-07T15:55:08.855Z,2.67
2019-05-07T15:56:43.500Z,2.27
2019-05-07T15:58:18.320Z,2.27
2019-05-07T16:00:04.710Z,2.37
2019-05-07T16:01:41.796Z,2.77
2019-05-07T16:03:33.028Z,3.33
2019-05-07T16:05:07.878Z,3.53
2019-05-07T16:06:42.670Z,3.10
2019-05-07T16:08:18.111Z,3.07
2019-05-07T16:09:52.815Z,2.53
2019-05-07T16:11:27.483Z,3.17
2019-05-07T16:13:02.131Z,3.00
2019-05-07T16:14:36.825Z,3.73
2019-05-07T16:16:11.476Z,3.23
2019-05-07T16:17:52.235Z,2.97
2019-05-07T16:19:32.087Z,2.43
2019-05-07T16:21:07.013Z,2.10
2019-05-07T16:22:45.222Z,4.23
2019-05-07T16:24:19.886Z,3.03
2019-05-07T16:25:54.534Z,2.47
2019-05-07T16:27:29.202Z,3.10
2019-05-07T16:29:05.419Z,5.60
2019-05-07T16:30:40.081Z,3.87
2019-05-07T16:32:14.738Z,2.70
2019-05-07T16:33:49.365Z,3.60
2019-05-07T16:35:24.088Z,4.57
2019-05-07T16:36:58.753Z,3.73
2019-05-07T16:38:33.394Z,3.30
2019-05-07T16:40:09.301Z,3.47
2019-05-07T16:41:43.939Z,9.07
2019-05-07T16:43:18.587Z,3.67
2019-05-07T16:44:53.217Z,5.70
2019-05-07T16:46:27.918Z,7.20
2019-05-07T16:48:03.241Z,4.97
2019-05-07T16:49:37.991Z,3.83
2019-05-07T16:51:12.857Z,3.93
2019-05-07T16:52:47.557Z,3.43
2019-05-07T16:54:22.235Z,3.73
2019-05-07T16:55:56.888Z,3.33
2019-05-07T16:57:37.634Z,3.47
2019-05-07T16:59:13.343Z,2.43
2019-05-07T17:00:52.723Z,4.00
2019-05-07T17:02:33.651Z,2.37
2019-05-07T17:04:06.847Z,2.80
2019-05-07T17:05:42.922Z,3.30
2019-05-07T17:07:19.720Z,3.53
2019-05-07T17:09:02.636Z,3.37
2019-05-07T17:10:39.208Z,2.53
2019-05-07T17:12:15.811Z,4.13
2019-05-07T17:13:51.933Z,2.83
2019-05-07T17:15:26.695Z,2.83
2019-05-07T17:17:02.571Z,3.60
2019-05-07T17:18:37.424Z,3.43
2019-05-07T17:20:13.318Z,3.33
2019-05-07T17:21:48.007Z,2.80
2019-05-07T17:23:22.880Z,3.17
2019-05-07T17:24:57.741Z,2.63
2019-05-07T17:26:32.418Z,3.90
2019-05-07T17:28:07.221Z,4.03
2019-05-07T17:29:42.923Z,2.73
2019-05-07T17:31:17.766Z,3.43
2019-05-07T17:32:52.617Z,3.30
2019-05-07T17:34:27.387Z,2.53
2019-05-07T17:36:03.002Z,4.07
2019-05-07T17:37:37.678Z,4.17
2019-05-07T17:39:12.750Z,3.63
2019-05-07T17:41:13.518Z,3.93
2019-05-07T17:42:43.555Z,3.50
2019-05-07T17:44:18.225Z,3.40
2019-05-07T17:45:54.020Z,4.20
2019-05-07T17:47:28.668Z,3.53
2019-05-07T17:49:03.339Z,3.37
2019-05-07T17:50:43.698Z,4.33
2019-05-07T17:52:18.363Z,3.77
2019-05-07T17:54:10.390Z,2.80
2019-05-07T17:56:02.191Z,3.83
2019-05-07T17:57:36.825Z,3.77
2019-05-07T17:59:12.365Z,3.87
2019-05-07T18:00:48.826Z,3.63
2019-05-07T18:02:35.811Z,4.67
2019-05-07T18:04:11.733Z,4.90
2019-05-07T18:05:46.592Z,3.40
2019-05-07T18:07:21.237Z,5.60
2019-05-07T18:08:56.058Z,4.97
2019-05-07T18:10:31.898Z,6.10
2019-05-07T18:12:07.136Z,7.83
2019-05-07T18:13:42.614Z,4.17
2019-05-07T18:15:17.966Z,5.03
2019-05-07T18:17:14.527Z,3.90
2019-05-07T18:18:49.179Z,5.03
2019-05-07T18:20:23.971Z,6.23
2019-05-07T18:21:58.709Z,3.83
2019-05-07T18:23:33.523Z,4.80
2019-05-07T18:25:08.283Z,4.87
2019-05-07T18:26:43.052Z,4.90
2019-05-07T18:28:17.807Z,4.43
2019-05-07T18:29:52.485Z,4.20
2019-05-07T18:31:45.313Z,5.53
2019-05-07T18:34:09.843Z,5.00
2019-05-07T18:35:45.388Z,3.50
2019-05-07T18:37:20.196Z,4.90
2019-05-07T18:38:55.048Z,4.80
2019-05-07T18:40:29.688Z,4.30
2019-05-07T18:42:04.428Z,6.10
2019-05-07T18:43:41.986Z,4.90
2019-05-07T18:45:16.602Z,6.33
2019-05-07T18:46:52.877Z,6.37
2019-05-07T18:48:28.465Z,4.13
2019-05-07T18:50:03.318Z,4.83
2019-05-07T18:51:38.066Z,7.77
2019-05-07T18:53:12.746Z,4.67
2019-05-07T18:54:47.977Z,5.27
2019-05-07T18:56:22.869Z,4.67
2019-05-07T18:57:57.814Z,4.47
2019-05-07T18:59:33.738Z,4.53
2019-05-07T19:01:11.031Z,4.90
2019-05-07T19:02:45.828Z,4.37
2019-05-07T19:04:21.927Z,6.57
2019-05-07T19:05:57.720Z,3.67
2019-05-07T19:07:32.569Z,4.03
2019-05-07T19:09:22.803Z,4.20
2019-05-07T19:10:57.513Z,5.77
2019-05-07T19:12:33.653Z,3.80
2019-05-07T19:14:08.354Z,6.10
2019-05-07T19:15:43.657Z,4.07
2019-05-07T19:17:18.317Z,5.60
2019-05-07T19:18:54.070Z,4.43
2019-05-07T19:20:28.732Z,4.47
2019-05-07T19:22:03.407Z,5.60
2019-05-07T19:23:39.129Z,5.37
2019-05-07T19:25:13.900Z,4.70
2019-05-07T19:26:48.541Z,6.83
2019-05-07T19:28:23.183Z,5.80
2019-05-07T19:29:57.855Z,5.40
2019-05-07T19:31:32.684Z,4.17
2019-05-07T19:33:07.398Z,4.27
2019-05-07T19:34:42.061Z,6.23
2019-05-07T19:36:16.723Z,5.10
2019-05-07T19:37:52.952Z,5.30
2019-05-07T19:39:29.457Z,5.03
2019-05-07T19:41:04.505Z,4.33
2019-05-07T19:42:39.211Z,3.77
2019-05-07T19:44:13.856Z,4.57
2019-05-07T19:45:48.756Z,4.53
2019-05-07T19:47:23.497Z,3.93
2019-05-07T19:48:58.165Z,4.97
2019-05-07T19:50:34.085Z,5.80
2019-05-07T19:52:08.715Z,4.97
2019-05-07T19:53:43.360Z,5.73
2019-05-07T19:55:18.001Z,5.07
2019-05-07T19:56:52.708Z,4.73
2019-05-07T19:58:27.387Z,5.53
2019-05-07T20:00:02.208Z,3.73
2019-05-07T20:01:43.584Z,4.60
2019-05-07T20:05:38.688Z,4.83
2019-05-07T20:07:13.528Z,5.27
2019-05-07T20:08:48.162Z,3.80
2019-05-07T20:10:33.142Z,4.07
2019-05-07T20:12:08.932Z,6.17
2019-05-07T20:13:43.878Z,4.50
2019-05-07T20:15:18.538Z,4.23
2019-05-07T20:16:53.309Z,4.07
2019-05-07T20:18:29.193Z,5.20
2019-05-07T20:20:04.229Z,4.93
2019-05-07T20:21:39.036Z,5.47
2019-05-07T20:23:13.679Z,4.47
2019-05-07T20:24:48.463Z,5.10
2019-05-07T20:26:23.373Z,5.20
2019-05-07T20:27:58.092Z,4.50
2019-05-07T20:29:32.885Z,4.67
2019-05-07T20:31:07.507Z,4.40
2019-05-07T20:32:42.816Z,6.53
2019-05-07T20:34:17.890Z,5.67
2019-05-07T20:35:52.775Z,5.97
2019-05-07T20:37:28.486Z,5.63
2019-05-07T20:39:03.206Z,5.07
2019-05-07T20:40:39.477Z,6.33
2019-05-07T20:42:14.129Z,5.47
2019-05-07T20:43:48.868Z,7.37
2019-05-07T20:45:23.938Z,5.50
2019-05-07T20:46:58.676Z,5.60
2019-05-07T20:48:33.420Z,4.03
2019-05-07T20:50:08.341Z,4.60
2019-05-07T20:51:42.938Z,4.50
2019-05-07T20:53:19.257Z,5.10
2019-05-07T20:55:12.831Z,5.17
2019-05-07T20:56:56.570Z,5.47
2019-05-07T20:58:32.820Z,5.07
2019-05-07T21:00:12.334Z,4.97
2019-05-07T21:01:48.558Z,4.80
2019-05-07T21:03:24.052Z,5.00
2019-05-07T21:04:58.833Z,4.47
2019-05-07T21:06:33.584Z,5.97
2019-05-07T21:08:08.312Z,4.60
2019-05-07T21:09:42.989Z,4.37
2019-05-07T21:11:17.651Z,5.20
2019-05-07T21:12:52.301Z,5.77
2019-05-07T21:14:26.958Z,5.10
2019-05-07T21:16:03.294Z,4.30
2019-05-07T21:17:38.117Z,5.50
2019-05-07T21:19:13.044Z,4.70
2019-05-07T21:20:47.796Z,4.40
2019-05-07T21:22:22.798Z,6.03
2019-05-07T21:23:57.537Z,6.00
2019-05-07T21:25:42.739Z,4.33
2019-05-07T21:27:08.662Z,4.33
2019-05-07T21:28:43.415Z,6.47
2019-05-07T21:30:19.076Z,6.23
2019-05-07T21:31:53.728Z,5.47
2019-05-07T21:33:28.370Z,5.30
2019-05-07T21:35:03.043Z,5.10
2019-05-07T21:36:37.664Z,6.37